createdAt,value
2017-11-29T00:00:06.944Z,17.08
2017-11-29T00:02:35.768Z,12.40
2017-11-29T00:05:03.792Z,14.38
2017-11-29T00:07:31.849Z,11.55
2017-11-29T00:09:59.864Z,13.60
2017-11-29T00:12:27.924Z,13.13
2017-11-29T00:14:55.956Z,16.50
2017-11-29T00:17:24.757Z,16.77
2017-11-29T00:19:53.561Z,14.45
2017-11-29T00:22:22.372Z,13.85
2017-11-29T00:24:51.170Z,15.55
2017-11-29T00:27:19.952Z,14.43
2017-11-29T00:29:48.060Z,12.40
2017-11-29T00:32:17.055Z,17.02
2017-11-29T00:34:45.840Z,15.75
2017-11-29T00:37:13.907Z,16.10
2017-11-29T00:39:41.925Z,14.65
2017-11-29T00:42:10.719Z,14.55
2017-11-29T00:44:39.500Z,13.43
2017-11-29T00:47:09.068Z,15.98
2017-11-29T00:49:37.084Z,12.82
2017-11-29T00:52:05.121Z,12.02
2017-11-29T00:54:33.915Z,17.33
2017-11-29T00:57:02.704Z,13.82
2017-11-29T00:59:31.518Z,13.95
2017-11-29T01:02:00.308Z,14.50
2017-11-29T01:04:28.356Z,12.73
2017-11-29T01:06:56.380Z,12.82
2017-11-29T01:09:25.167Z,16.23
2017-11-29T01:11:53.244Z,13.93
2017-11-29T01:14:21.272Z,11.75
2017-11-29T01:16:49.304Z,11.15
2017-11-29T01:19:17.334Z,14.35
2017-11-29T01:21:46.161Z,10.95
2017-11-29T01:24:14.188Z,13.55
2017-11-29T01:26:42.200Z,15.90
2017-11-29T01:29:10.206Z,16.30
2017-11-29T01:31:38.193Z,15.73
2017-11-29T01:34:06.178Z,13.07
2017-11-29T01:36:34.193Z,12.82
2017-11-29T01:39:02.176Z,13.20
2017-11-29T01:41:30.166Z,13.88
2017-11-29T01:43:58.958Z,13.00
2017-11-29T01:46:26.954Z,11.90
2017-11-29T01:48:55.707Z,14.38
2017-11-29T01:51:23.729Z,16.12
2017-11-29T01:53:52.532Z,15.38
2017-11-29T01:56:20.495Z,14.98
2017-11-29T01:58:48.514Z,15.57
2017-11-29T02:01:16.506Z,16.48
2017-11-29T02:03:44.491Z,16.30
2017-11-29T02:06:24.514Z,15.80
2017-11-29T02:08:52.499Z,14.43
2017-11-29T02:11:20.486Z,16.85
2017-11-29T02:13:49.282Z,14.57
2017-11-29T02:16:17.260Z,13.18
2017-11-29T02:18:45.251Z,14.63
2017-11-29T02:21:13.257Z,12.75
2017-11-29T02:23:41.250Z,20.23
2017-11-29T02:26:09.243Z,14.38
2017-11-29T02:28:37.269Z,15.98
2017-11-29T02:31:05.274Z,13.80
2017-11-29T02:33:34.026Z,12.02
2017-11-29T02:36:02.054Z,12.68
2017-11-29T02:38:30.050Z,13.20
2017-11-29T02:43:57.248Z,14.93
2017-11-29T02:46:26.063Z,13.25
2017-11-29T02:48:54.086Z,17.00
2017-11-29T02:51:22.138Z,13.10
2017-11-29T02:53:50.167Z,12.27
2017-11-29T02:56:18.158Z,12.82
2017-11-29T02:58:47.659Z,16.02
2017-11-29T03:01:15.707Z,13.80
2017-11-29T03:03:43.673Z,14.95
2017-11-29T03:06:11.657Z,15.77
2017-11-29T03:08:39.917Z,16.20
2017-11-29T03:11:07.905Z,14.02
2017-11-29T03:13:36.661Z,13.75
2017-11-29T03:16:05.221Z,11.00
2017-11-29T03:18:33.966Z,16.67
2017-11-29T03:21:01.953Z,12.95
2017-11-29T03:23:30.057Z,14.20
2017-11-29T03:25:58.050Z,13.25
2017-11-29T03:28:26.038Z,13.65
2017-11-29T03:30:54.926Z,15.60
2017-11-29T03:33:23.695Z,12.95
2017-11-29T03:35:51.693Z,16.67
2017-11-29T03:38:19.690Z,14.90
2017-11-29T03:40:47.685Z,17.08
2017-11-29T03:43:16.437Z,15.07
2017-11-29T03:45:44.450Z,14.32
2017-11-29T03:48:12.439Z,14.07
2017-11-29T03:50:40.426Z,15.18
2017-11-29T03:53:08.443Z,13.38
2017-11-29T03:55:36.425Z,14.23
2017-11-29T03:58:04.413Z,15.25
2017-11-29T04:00:32.453Z,19.60
2017-11-29T04:03:00.447Z,20.90
2017-11-29T04:05:29.218Z,16.80
2017-11-29T04:07:57.259Z,17.77
2017-11-29T04:10:25.237Z,17.10
2017-11-29T04:12:53.247Z,16.85
2017-11-29T04:15:21.254Z,14.52
2017-11-29T04:17:49.246Z,19.60
2017-11-29T04:20:17.229Z,15.30
2017-11-29T04:22:45.241Z,17.52
2017-11-29T04:25:13.231Z,16.30
2017-11-29T04:27:41.218Z,19.73
2017-11-29T04:30:09.241Z,15.00
2017-11-29T04:32:38.749Z,13.60
2017-11-29T04:35:06.729Z,12.98
2017-11-29T04:37:34.828Z,16.20
2017-11-29T04:40:02.811Z,15.68
2017-11-29T04:42:30.794Z,16.37
2017-11-29T04:44:58.819Z,16.27
2017-11-29T04:47:27.569Z,13.70
2017-11-29T04:49:55.563Z,16.00
2017-11-29T04:52:23.619Z,12.07
2017-11-29T04:54:51.612Z,15.13
2017-11-29T04:57:19.594Z,15.48
2017-11-29T04:59:47.609Z,13.70
2017-11-29T05:02:15.603Z,15.75
2017-11-29T05:04:44.350Z,17.35
2017-11-29T05:07:12.378Z,14.20
2017-11-29T05:09:40.366Z,18.95
2017-11-29T05:12:09.113Z,11.70
2017-11-29T05:14:37.162Z,15.60
2017-11-29T05:17:05.909Z,14.25
2017-11-29T05:19:33.902Z,14.10
2017-11-29T05:22:01.930Z,18.55
2017-11-29T05:24:30.677Z,16.15
2017-11-29T05:26:58.670Z,13.35
2017-11-29T05:29:26.710Z,18.08
2017-11-29T05:31:54.718Z,14.82
2017-11-29T05:34:22.713Z,15.70
2017-11-29T05:36:50.717Z,11.25
2017-11-29T05:39:18.711Z,16.08
2017-11-29T05:41:47.466Z,14.15
2017-11-29T05:44:15.486Z,14.60
2017-11-29T05:46:43.478Z,17.85
2017-11-29T05:49:12.237Z,16.65
2017-11-29T05:51:40.258Z,16.80
2017-11-29T05:54:09.013Z,16.70
2017-11-29T05:56:37.003Z,16.23
2017-11-29T05:59:05.005Z,12.57
2017-11-29T06:01:32.998Z,13.77
2017-11-29T06:04:00.985Z,13.80
2017-11-29T06:06:29.771Z,13.55
2017-11-29T06:08:59.268Z,18.17
2017-11-29T06:11:27.266Z,17.40
2017-11-29T06:13:55.306Z,20.10
2017-11-29T06:16:23.289Z,15.68
2017-11-29T06:18:51.313Z,17.17
2017-11-29T06:21:19.298Z,15.07
2017-11-29T06:23:47.298Z,18.62
2017-11-29T06:26:16.049Z,15.13
2017-11-29T06:28:44.060Z,14.82
2017-11-29T06:31:12.069Z,13.90
2017-11-29T06:33:40.086Z,15.55
2017-11-29T06:36:08.110Z,18.40
2017-11-29T06:38:36.107Z,21.85
2017-11-29T06:41:04.864Z,13.10
2017-11-29T06:43:32.883Z,19.35
2017-11-29T06:46:00.866Z,18.65
2017-11-29T06:48:28.862Z,17.37
2017-11-29T06:50:57.660Z,14.80
2017-11-29T06:53:25.644Z,14.23
2017-11-29T06:55:54.411Z,15.32
2017-11-29T06:58:22.450Z,18.48
2017-11-29T07:00:50.443Z,16.95
2017-11-29T07:03:18.423Z,15.43
2017-11-29T07:05:46.450Z,16.48
2017-11-29T07:08:14.433Z,13.50
2017-11-29T07:10:42.417Z,19.02
2017-11-29T07:13:10.466Z,14.00
2017-11-29T07:15:38.453Z,15.95
2017-11-29T07:18:06.443Z,17.23
2017-11-29T07:20:34.462Z,14.40
2017-11-29T07:23:02.453Z,13.35
2017-11-29T07:25:31.209Z,16.25
2017-11-29T07:27:59.317Z,13.60
2017-11-29T07:30:27.305Z,13.13
2017-11-29T07:32:55.293Z,15.23
2017-11-29T07:35:23.325Z,14.55
2017-11-29T07:37:52.146Z,21.08
2017-11-29T07:40:20.126Z,18.23
2017-11-29T07:42:48.155Z,15.23
2017-11-29T07:45:16.908Z,16.15
2017-11-29T07:47:44.898Z,17.25
2017-11-29T07:50:12.923Z,17.02
2017-11-29T07:52:41.669Z,14.95
2017-11-29T07:55:10.473Z,16.70
2017-11-29T07:57:38.478Z,15.75
2017-11-29T08:00:06.485Z,14.10
2017-11-29T08:02:34.470Z,12.37
2017-11-29T08:05:03.251Z,20.80
2017-11-29T08:07:31.247Z,18.37
2017-11-29T08:09:59.229Z,16.45
2017-11-29T08:12:27.253Z,17.05
2017-11-29T08:14:55.243Z,13.00
2017-11-29T08:17:23.227Z,17.50
2017-11-29T08:19:51.258Z,18.12
2017-11-29T08:22:19.249Z,18.92
2017-11-29T08:24:48.004Z,17.42
2017-11-29T08:27:16.029Z,16.02
2017-11-29T08:29:44.014Z,15.27
2017-11-29T08:32:12.774Z,15.75
2017-11-29T08:34:40.798Z,15.48
2017-11-29T08:37:09.555Z,16.12
2017-11-29T08:39:37.542Z,15.55
2017-11-29T08:42:05.662Z,13.43
2017-11-29T08:44:33.645Z,16.98
2017-11-29T08:47:02.405Z,17.50
2017-11-29T08:49:30.422Z,16.17
2017-11-29T08:51:58.421Z,16.35
2017-11-29T08:54:27.169Z,13.02
2017-11-29T08:56:55.197Z,16.85
2017-11-29T08:59:23.956Z,14.38
2017-11-29T09:01:51.958Z,15.32
2017-11-29T09:04:19.969Z,14.87
2017-11-29T09:06:48.725Z,15.40
2017-11-29T09:09:16.709Z,20.23
2017-11-29T09:11:44.729Z,17.80
2017-11-29T09:14:13.493Z,16.67
2017-11-29T09:16:41.488Z,18.35
2017-11-29T09:19:09.514Z,16.70
2017-11-29T09:21:37.510Z,16.77
2017-11-29T09:24:05.494Z,13.93
2017-11-29T09:26:33.631Z,19.83
2017-11-29T09:29:01.618Z,19.65
2017-11-29T09:31:29.606Z,20.08
2017-11-29T09:33:58.404Z,19.30
2017-11-29T09:36:27.168Z,20.02
2017-11-29T09:38:55.158Z,17.25
2017-11-29T09:41:23.201Z,18.48
2017-11-29T09:43:51.190Z,20.33
2017-11-29T09:46:19.181Z,24.65
2017-11-29T09:48:47.202Z,16.67
2017-11-29T09:51:15.189Z,21.42
2017-11-29T09:53:43.191Z,17.52
2017-11-29T09:56:12.021Z,15.65
2017-11-29T09:58:40.018Z,20.20
2017-11-29T10:01:08.002Z,16.12
2017-11-29T10:03:36.037Z,17.27
2017-11-29T10:06:04.795Z,16.20
2017-11-29T10:08:32.819Z,17.83
2017-11-29T10:11:00.830Z,15.15
2017-11-29T10:13:28.828Z,18.05
2017-11-29T10:15:56.822Z,17.33
2017-11-29T10:18:25.253Z,16.50
2017-11-29T10:20:53.246Z,15.35
2017-11-29T10:23:22.001Z,15.55
2017-11-29T10:25:50.042Z,19.45
2017-11-29T10:28:18.798Z,17.92
2017-11-29T10:30:46.786Z,17.85
2017-11-29T10:33:14.821Z,16.27
2017-11-29T10:35:42.830Z,17.12
2017-11-29T10:38:10.809Z,15.52
2017-11-29T10:40:38.828Z,18.12
2017-11-29T10:43:06.833Z,20.52
2017-11-29T10:45:35.577Z,16.98
2017-11-29T10:48:03.701Z,16.95
2017-11-29T10:50:31.690Z,19.60
2017-11-29T10:53:00.449Z,12.63
2017-11-29T10:55:28.512Z,12.68
2017-11-29T10:57:56.509Z,12.02
2017-11-29T11:00:24.494Z,13.90
2017-11-29T11:02:52.514Z,10.70
2017-11-29T11:05:20.543Z,10.80
2017-11-29T11:07:48.533Z,11.20
2017-11-29T11:10:16.545Z,11.35
2017-11-29T11:12:44.538Z,9.10
2017-11-29T11:15:12.538Z,11.02
2017-11-29T11:17:41.425Z,13.93
2017-11-29T11:20:09.409Z,11.35
2017-11-29T11:22:37.547Z,10.63
2017-11-29T11:25:05.573Z,11.88
2017-11-29T11:27:33.563Z,9.27
2017-11-29T11:30:01.550Z,8.05
2017-11-29T11:32:29.658Z,8.40
2017-11-29T11:34:57.649Z,7.10
2017-11-29T11:37:25.644Z,8.45
2017-11-29T11:39:53.666Z,8.55
2017-11-29T11:42:21.649Z,9.20
2017-11-29T11:44:49.633Z,10.27
2017-11-29T11:47:17.652Z,10.05
2017-11-29T11:49:45.633Z,11.80
2017-11-29T11:52:13.675Z,8.25
2017-11-29T11:54:41.694Z,11.40
2017-11-29T11:57:10.464Z,6.90
2017-11-29T11:59:38.454Z,9.25
2017-11-29T12:02:06.487Z,8.75
2017-11-29T12:04:34.465Z,7.78
2017-11-29T12:07:02.462Z,6.32
2017-11-29T12:09:30.482Z,11.05
2017-11-29T12:11:59.973Z,5.53
2017-11-29T12:14:27.957Z,4.82
2017-11-29T12:16:55.965Z,4.07
2017-11-29T12:19:23.955Z,4.35
2017-11-29T12:21:51.958Z,5.45
2017-11-29T12:24:19.978Z,4.80
2017-11-29T12:26:47.966Z,5.22
2017-11-29T12:29:15.961Z,3.58
2017-11-29T12:31:43.973Z,3.95
2017-11-29T12:34:12.721Z,3.72
2017-11-29T12:36:40.720Z,3.70
2017-11-29T12:39:08.726Z,4.72
2017-11-29T12:41:36.714Z,3.70
2017-11-29T12:44:04.701Z,6.90
2017-11-29T12:46:33.505Z,5.25
2017-11-29T12:49:28.853Z,4.47
2017-11-29T12:51:56.869Z,5.93
2017-11-29T12:54:24.873Z,5.68
2017-11-29T12:56:52.872Z,3.17
2017-11-29T12:59:20.890Z,3.20
2017-11-29T13:01:48.873Z,3.72
2017-11-29T13:04:16.859Z,3.42
2017-11-29T13:06:44.897Z,4.10
2017-11-29T13:09:12.889Z,3.75
2017-11-29T13:11:40.869Z,3.53
2017-11-29T13:14:08.889Z,3.22
2017-11-29T13:16:36.874Z,4.00
2017-11-29T13:19:04.862Z,2.95
2017-11-29T13:21:32.885Z,3.40
2017-11-29T13:24:00.868Z,3.35
2017-11-29T13:26:28.853Z,3.20
2017-11-29T13:28:56.913Z,4.07
2017-11-29T13:31:24.886Z,3.97
2017-11-29T13:33:52.873Z,4.35
2017-11-29T13:36:20.965Z,4.50
2017-11-29T13:38:48.961Z,4.85
2017-11-29T13:41:16.938Z,6.15
2017-11-29T13:43:44.950Z,2.85
2017-11-29T13:46:13.696Z,5.40
2017-11-29T13:48:41.681Z,3.70
2017-11-29T13:51:09.710Z,5.37
2017-11-29T13:53:37.706Z,3.72
2017-11-29T13:56:06.470Z,4.22
2017-11-29T13:58:34.502Z,3.08
2017-11-29T14:01:03.201Z,3.30
2017-11-29T14:03:31.180Z,4.55
2017-11-29T14:05:59.239Z,2.60
2017-11-29T14:08:27.213Z,3.35
2017-11-29T14:10:55.210Z,4.62
2017-11-29T14:13:24.110Z,3.42
2017-11-29T14:15:52.869Z,4.37
2017-11-29T14:18:20.858Z,3.25
2017-11-29T14:20:48.894Z,3.72
2017-11-29T14:23:17.625Z,3.03
2017-11-29T14:25:45.606Z,3.40
2017-11-29T14:28:13.613Z,2.37
2017-11-29T14:30:41.601Z,2.37
2017-11-29T14:33:09.585Z,1.87
2017-11-29T14:35:37.594Z,1.48
2017-11-29T14:38:05.610Z,3.03
2017-11-29T14:40:33.590Z,1.67
2017-11-29T14:43:01.721Z,2.55
2017-11-29T14:45:29.707Z,1.45
2017-11-29T14:47:57.690Z,1.30
2017-11-29T14:50:25.895Z,1.60
2017-11-29T14:52:54.650Z,1.50
2017-11-29T14:55:22.649Z,2.15
2017-11-29T14:57:50.645Z,2.28
2017-11-29T15:00:18.630Z,1.70
2017-11-29T15:02:46.613Z,3.12
2017-11-29T15:05:14.622Z,3.05
2017-11-29T15:07:42.601Z,1.70
2017-11-29T15:10:10.585Z,1.48
2017-11-29T15:12:39.054Z,2.45
2017-11-29T15:15:07.034Z,2.03
2017-11-29T15:17:35.040Z,2.62
2017-11-29T15:20:03.820Z,3.65
2017-11-29T15:22:31.803Z,2.45
2017-11-29T15:25:00.549Z,2.53
2017-11-29T15:27:28.567Z,4.50
2017-11-29T15:29:56.561Z,3.58
2017-11-29T15:32:24.557Z,3.30
2017-11-29T15:34:53.353Z,2.80
2017-11-29T15:37:22.104Z,5.43
2017-11-29T15:39:50.082Z,4.40
2017-11-29T15:42:18.091Z,2.80
2017-11-29T15:44:46.069Z,3.22
2017-11-29T15:47:14.050Z,3.15
2017-11-29T15:49:42.258Z,4.37
2017-11-29T15:52:10.237Z,4.85
2017-11-29T15:54:38.218Z,4.93
2017-11-29T15:57:06.247Z,4.07
2017-11-29T15:59:34.230Z,4.47
2017-11-29T16:02:02.221Z,4.28
2017-11-29T16:04:30.246Z,5.35
2017-11-29T16:06:58.228Z,5.35
2017-11-29T16:09:26.306Z,3.80
2017-11-29T16:11:54.348Z,5.18
2017-11-29T16:14:22.345Z,3.58
2017-11-29T16:16:50.346Z,4.28
2017-11-29T16:19:18.366Z,3.10
2017-11-29T16:21:47.112Z,3.95
2017-11-29T16:24:15.823Z,5.00
2017-11-29T16:26:43.829Z,3.65
2017-11-29T16:29:11.854Z,4.05
2017-11-29T16:31:39.838Z,6.85
2017-11-29T16:34:07.850Z,6.65
2017-11-29T16:36:35.834Z,5.47
2017-11-29T16:39:03.833Z,4.35
2017-11-29T16:41:31.856Z,5.37
2017-11-29T16:44:00.602Z,6.05
2017-11-29T16:46:28.589Z,4.78
2017-11-29T16:48:56.610Z,4.90
2017-11-29T16:51:25.374Z,5.97
2017-11-29T16:53:53.406Z,5.20
2017-11-29T16:56:22.194Z,7.57
2017-11-29T16:58:50.943Z,5.70
2017-11-29T17:01:18.922Z,7.15
2017-11-29T17:03:46.933Z,5.05
2017-11-29T17:06:14.930Z,5.40
2017-11-29T17:08:43.842Z,6.45
2017-11-29T17:11:11.887Z,6.25
2017-11-29T17:13:39.867Z,4.87
2017-11-29T17:16:07.846Z,8.73
2017-11-29T17:18:35.882Z,4.90
2017-11-29T17:21:04.625Z,5.43
2017-11-29T17:23:32.611Z,5.65
2017-11-29T17:26:00.743Z,5.37
2017-11-29T17:28:28.717Z,7.15
2017-11-29T17:30:56.705Z,6.07
2017-11-29T17:33:25.894Z,5.68
2017-11-29T17:35:53.874Z,5.32
2017-11-29T17:38:21.868Z,6.03
2017-11-29T17:40:49.901Z,6.30
2017-11-29T17:43:17.894Z,7.32
2017-11-29T17:45:45.898Z,5.72
2017-11-29T17:48:14.090Z,5.32
2017-11-29T17:50:42.082Z,4.90
2017-11-29T17:53:11.565Z,6.20
2017-11-29T17:55:39.574Z,6.75
2017-11-29T17:58:07.576Z,6.55
2017-11-29T18:00:35.562Z,6.80
2017-11-29T18:03:04.338Z,5.35
2017-11-29T18:05:32.324Z,7.20
2017-11-29T18:08:00.297Z,5.80
2017-11-29T18:10:28.334Z,6.70
2017-11-29T18:12:56.326Z,7.05
2017-11-29T18:15:24.305Z,7.30
2017-11-29T18:17:52.330Z,6.00
2017-11-29T18:20:20.313Z,6.55
2017-11-29T18:22:48.293Z,5.60
2017-11-29T18:25:16.309Z,6.25
2017-11-29T18:27:45.065Z,8.25
2017-11-29T18:30:13.049Z,6.95
2017-11-29T18:32:41.065Z,6.93
2017-11-29T18:35:09.050Z,5.60
2017-11-29T18:37:37.802Z,5.43
2017-11-29T18:40:05.820Z,5.70
2017-11-29T18:42:33.793Z,5.90
2017-11-29T18:45:01.780Z,6.50
2017-11-29T18:47:29.797Z,10.05
2017-11-29T18:49:58.547Z,7.28
2017-11-29T18:52:26.545Z,7.10
2017-11-29T18:54:54.561Z,6.15
2017-11-29T18:57:22.573Z,7.00
2017-11-29T18:59:50.550Z,5.85
2017-11-29T19:02:18.577Z,6.55
2017-11-29T19:04:46.561Z,7.70
2017-11-29T19:07:14.546Z,5.87
2017-11-29T19:09:42.560Z,5.60
2017-11-29T19:12:11.306Z,7.07
2017-11-29T19:14:39.288Z,5.15
2017-11-29T19:17:07.305Z,9.30
2017-11-29T19:19:36.062Z,7.87
2017-11-29T19:22:04.042Z,7.53
2017-11-29T19:24:32.268Z,6.65
2017-11-29T19:27:00.262Z,6.53
2017-11-29T19:29:29.017Z,8.57
2017-11-29T19:31:57.025Z,10.90
2017-11-29T19:34:25.025Z,8.05
2017-11-29T19:36:53.787Z,6.07
2017-11-29T19:39:22.215Z,5.32
2017-11-29T19:41:50.197Z,13.88
2017-11-29T19:44:18.181Z,7.20
2017-11-29T19:46:46.182Z,5.53
2017-11-29T19:49:14.160Z,6.70
2017-11-29T19:51:42.149Z,7.55
2017-11-29T19:54:10.197Z,7.32
2017-11-29T19:56:38.195Z,6.78
2017-11-29T19:59:06.186Z,7.47
2017-11-29T20:01:34.993Z,7.60
2017-11-29T20:04:03.750Z,8.32
2017-11-29T20:06:31.753Z,8.68
2017-11-29T20:09:00.961Z,8.55
2017-11-29T20:11:28.949Z,8.98
2017-11-29T20:13:56.989Z,6.55
2017-11-29T20:16:25.001Z,6.80
2017-11-29T20:18:53.009Z,7.20
2017-11-29T20:21:21.779Z,8.13
2017-11-29T20:23:49.773Z,7.55
2017-11-29T20:26:17.758Z,7.10
2017-11-29T20:28:45.746Z,8.05
2017-11-29T20:31:13.786Z,11.60
2017-11-29T20:33:41.751Z,7.55
2017-11-29T20:36:09.748Z,10.23
2017-11-29T20:38:37.838Z,8.52
2017-11-29T20:41:05.865Z,8.88
2017-11-29T20:43:34.642Z,11.48
2017-11-29T20:46:02.656Z,7.93
2017-11-29T20:48:31.424Z,10.90
2017-11-29T20:50:59.429Z,8.80
2017-11-29T20:53:27.443Z,7.75
2017-11-29T20:55:55.450Z,8.40
2017-11-29T20:58:23.437Z,9.48
2017-11-29T21:00:51.463Z,7.53
2017-11-29T21:03:19.470Z,11.40
2017-11-29T21:05:47.727Z,10.13
2017-11-29T21:08:15.745Z,9.30
2017-11-29T21:10:43.746Z,10.82
2017-11-29T21:13:11.748Z,10.00
2017-11-29T21:15:39.766Z,9.38
2017-11-29T21:18:07.767Z,13.35
2017-11-29T21:20:35.877Z,8.05
2017-11-29T21:23:03.854Z,8.73
2017-11-29T21:25:31.882Z,9.30
2017-11-29T21:27:59.878Z,11.68
2017-11-29T21:30:27.921Z,10.55
2017-11-29T21:32:55.925Z,10.75
2017-11-29T21:35:25.430Z,11.68
2017-11-29T21:37:53.460Z,11.82
2017-11-29T21:40:22.229Z,10.43
2017-11-29T21:42:50.250Z,11.73
2017-11-29T21:45:19.338Z,9.95
2017-11-29T21:47:48.123Z,13.55
2017-11-29T21:50:16.117Z,13.20
2017-11-29T21:52:44.136Z,13.07
2017-11-29T21:55:12.147Z,12.90
2017-11-29T21:57:40.151Z,11.68
2017-11-29T22:00:08.259Z,15.25
2017-11-29T22:02:37.013Z,11.35
2017-11-29T22:05:05.000Z,12.50
2017-11-29T22:07:33.005Z,11.80
2017-11-29T22:10:00.994Z,10.57
2017-11-29T22:12:28.977Z,10.90
2017-11-29T22:14:57.022Z,12.18
2017-11-29T22:17:25.014Z,12.75
2017-11-29T22:19:52.999Z,10.55
2017-11-29T22:22:21.027Z,15.50
2017-11-29T22:24:49.782Z,13.27
2017-11-29T22:27:17.770Z,12.25
2017-11-29T22:29:45.799Z,12.60
2017-11-29T22:32:14.549Z,12.98
2017-11-29T22:34:42.537Z,13.18
2017-11-29T22:37:10.962Z,11.00
2017-11-29T22:39:39.139Z,14.02
2017-11-29T22:42:07.908Z,13.00
2017-11-29T22:44:35.930Z,10.50
2017-11-29T22:47:04.687Z,12.40
2017-11-29T22:49:32.676Z,13.48
2017-11-29T22:52:00.789Z,13.30
2017-11-29T22:54:28.804Z,11.10
2017-11-29T22:56:56.789Z,13.65
2017-11-29T22:59:24.818Z,13.48
2017-11-29T23:01:52.801Z,10.68
2017-11-29T23:04:20.796Z,10.15
2017-11-29T23:06:48.981Z,10.30
2017-11-29T23:09:16.982Z,13.40
2017-11-29T23:11:45.728Z,11.20
2017-11-29T23:14:13.760Z,13.13
2017-11-29T23:16:42.513Z,11.48
2017-11-29T23:19:10.493Z,9.98
2017-11-29T23:21:38.558Z,13.35
2017-11-29T23:24:06.557Z,13.82
2017-11-29T23:26:34.553Z,12.70
2017-11-29T23:29:02.569Z,16.30
2017-11-29T23:31:30.575Z,13.90
2017-11-29T23:33:59.322Z,11.55
2017-11-29T23:36:27.361Z,11.73
2017-11-29T23:38:55.353Z,16.70
2017-11-29T23:41:23.349Z,17.20
2017-11-29T23:43:51.369Z,16.40
2017-11-29T23:46:19.366Z,13.57
2017-11-29T23:48:48.122Z,12.30
2017-11-29T23:51:16.154Z,13.90
2017-11-29T23:53:44.914Z,14.07
2017-11-29T23:56:12.911Z,13.38
2017-11-29T23:58:40.947Z,15.73
